Time;durP1;ratioP1;P1;durP2;ratioP2;P2;SDS_P1;SDS_P2;PMS_P1;PMS_P2;Temp;Humidity;BMP_temperature;BMP_pressure;BME280_temperature;BME280_humidity;BME280_pressure;Samples;Min_cycle;Max_cycle;Signal;HPM_P1;HPM_P2
2022/03/23 00:00:18;;;;;;;16.93;5.90;;;8.90;56.40;;;;;;5033500;28;20202;-76
2022/03/23 00:02:47;;;;;;;15.97;6.27;;;8.90;56.30;;;;;;5033051;28;20203;-76
2022/03/23 00:05:17;;;;;;;19.60;6.77;;;8.90;55.70;;;;;;5033033;28;20194;-76
2022/03/23 00:07:48;;;;;;;20.77;6.63;;;8.80;55.80;;;;;;5032343;28;20727;-76
2022/03/23 00:10:16;;;;;;;19.47;6.57;;;8.80;55.70;;;;;;5033049;28;20609;-76
2022/03/23 00:12:45;;;;;;;19.53;6.10;;;8.80;55.80;;;;;;5030166;28;20387;-76
2022/03/23 00:15:13;;;;;;;13.03;5.73;;;8.80;55.80;;;;;;5032111;28;20198;-76
2022/03/23 00:17:42;;;;;;;15.23;6.07;;;8.70;55.70;;;;;;5034135;28;20208;-76
2022/03/23 00:20:11;;;;;;;17.10;6.60;;;8.70;55.70;;;;;;5019361;28;20235;-77
2022/03/23 00:22:40;;;;;;;17.83;6.27;;;8.70;55.80;;;;;;5013149;28;20210;-76
2022/03/23 00:25:10;;;;;;;16.63;6.50;;;8.70;55.90;;;;;;5012410;28;20199;-76
2022/03/23 00:27:39;;;;;;;12.83;6.17;;;8.60;55.80;;;;;;5011126;28;20209;-76
2022/03/23 00:30:09;;;;;;;19.17;6.43;;;8.60;55.90;;;;;;5010177;28;20196;-76
2022/03/23 00:32:37;;;;;;;16.27;6.10;;;8.60;56.00;;;;;;5009566;28;20215;-76
2022/03/23 00:35:06;;;;;;;15.53;7.10;;;8.60;56.00;;;;;;5005387;28;20196;-76
2022/03/23 00:37:35;;;;;;;14.27;6.40;;;8.60;56.00;;;;;;5010142;28;20202;-77
2022/03/23 00:40:04;;;;;;;15.70;6.73;;;8.60;56.20;;;;;;5015107;28;20203;-75
2022/03/23 00:42:33;;;;;;;17.93;6.97;;;8.50;56.20;;;;;;5012481;28;20199;-76
2022/03/23 00:45:03;;;;;;;15.43;6.23;;;8.50;56.20;;;;;;5015709;28;20203;-76
2022/03/23 00:47:31;;;;;;;15.20;6.17;;;8.50;56.30;;;;;;5010365;28;20225;-77
2022/03/23 00:50:00;;;;;;;17.20;6.37;;;8.40;56.30;;;;;;5012223;28;20789;-76
2022/03/23 00:52:29;;;;;;;18.87;5.97;;;8.40;56.50;;;;;;5012638;28;20211;-77
2022/03/23 00:54:57;;;;;;;13.97;6.37;;;8.40;56.50;;;;;;5011423;28;20660;-76
2022/03/23 00:57:25;;;;;;;17.97;7.03;;;8.40;56.60;;;;;;5011110;28;20199;-77
2022/03/23 00:59:55;;;;;;;17.13;7.17;;;8.30;56.60;;;;;;5010546;28;20206;-76
2022/03/23 01:02:24;;;;;;;14.93;6.47;;;8.30;56.70;;;;;;5007599;28;20208;-76
2022/03/23 01:04:52;;;;;;;17.83;6.80;;;8.30;56.80;;;;;;5013750;28;20606;-76
2022/03/23 01:07:20;;;;;;;17.83;5.90;;;8.20;56.80;;;;;;5013369;28;20226;-77
2022/03/23 01:09:49;;;;;;;14.70;5.87;;;8.20;56.80;;;;;;5010634;28;20583;-76
2022/03/23 01:12:17;;;;;;;16.50;6.20;;;8.20;56.80;;;;;;5013643;28;20203;-76
2022/03/23 01:14:45;;;;;;;13.57;6.53;;;8.20;56.80;;;;;;5010982;28;20199;-76
2022/03/23 01:17:16;;;;;;;14.80;6.50;;;8.10;56.90;;;;;;5013773;28;20317;-76
2022/03/23 01:19:45;;;;;;;12.47;6.30;;;8.10;56.90;;;;;;5013936;28;20237;-77
2022/03/23 01:22:13;;;;;;;15.00;6.00;;;8.10;56.90;;;;;;5017127;28;20562;-77
2022/03/23 01:24:42;;;;;;;13.70;6.27;;;8.00;56.90;;;;;;5016110;28;20199;-78
2022/03/23 01:27:10;;;;;;;15.23;6.43;;;8.10;57.00;;;;;;5013137;28;20235;-77
2022/03/23 01:29:39;;;;;;;18.83;6.20;;;8.00;57.00;;;;;;5016583;28;20841;-77
2022/03/23 01:32:08;;;;;;;15.10;6.40;;;8.00;57.10;;;;;;5014688;28;20208;-77
2022/03/23 01:34:38;;;;;;;13.07;6.17;;;8.00;57.10;;;;;;5016286;28;20289;-77
2022/03/23 01:37:07;;;;;;;14.60;6.20;;;8.00;57.20;;;;;;5017027;28;20202;-78
2022/03/23 01:39:36;;;;;;;12.50;5.90;;;7.90;57.20;;;;;;5014731;28;20257;-77
2022/03/23 01:42:05;;;;;;;12.87;5.20;;;7.90;57.30;;;;;;5013872;28;20944;-77
2022/03/23 01:44:34;;;;;;;11.63;5.67;;;7.90;57.40;;;;;;5016508;28;20944;-77
2022/03/23 01:47:06;;;;;;;20.63;6.17;;;7.90;57.50;;;;;;5013702;28;20214;-78
2022/03/23 01:49:36;;;;;;;12.17;5.43;;;7.90;57.60;;;;;;5015248;28;20286;-77
2022/03/23 01:52:07;;;;;;;11.87;5.30;;;7.90;57.60;;;;;;5017956;28;20206;-77
2022/03/23 01:54:37;;;;;;;15.60;5.90;;;7.90;57.70;;;;;;5016129;28;20192;-77
2022/03/23 01:57:07;;;;;;;22.40;5.17;;;7.90;57.70;;;;;;5014214;28;20199;-77
2022/03/23 01:59:37;;;;;;;21.00;5.90;;;7.80;57.70;;;;;;5015380;28;20207;-78
2022/03/23 02:02:06;;;;;;;12.30;5.53;;;7.90;57.80;;;;;;5012447;28;20613;-77
2022/03/23 02:04:35;;;;;;;17.57;5.60;;;7.80;57.80;;;;;;5016364;28;20721;-77
2022/03/23 02:07:05;;;;;;;12.37;5.43;;;7.90;57.80;;;;;;5013656;28;20922;-77
2022/03/23 02:09:34;;;;;;;12.97;5.63;;;7.90;57.80;;;;;;5015252;28;20933;-77
2022/03/23 02:12:08;;;;;;;12.40;5.33;;;7.80;57.70;;;;;;5013020;28;20188;-77
2022/03/23 02:14:37;;;;;;;13.60;5.73;;;7.90;57.80;;;;;;5015390;28;20791;-77
2022/03/23 02:17:06;;;;;;;14.23;5.37;;;7.90;58.00;;;;;;5012104;28;20187;-77
2022/03/23 02:19:35;;;;;;;10.77;5.70;;;7.80;57.90;;;;;;5015151;28;20229;-77
2022/03/23 02:22:06;;;;;;;14.07;5.33;;;7.80;58.00;;;;;;5015674;28;20210;-77
2022/03/23 02:24:34;;;;;;;13.53;5.97;;;7.80;58.00;;;;;;5015788;28;20203;-77
2022/03/23 02:27:03;;;;;;;16.43;5.13;;;7.80;58.10;;;;;;5016357;28;20226;-77
2022/03/23 02:29:33;;;;;;;14.97;5.47;;;7.80;58.00;;;;;;5012410;28;20203;-78
2022/03/23 02:32:03;;;;;;;14.83;5.70;;;7.80;58.10;;;;;;5011493;28;20286;-77
2022/03/23 02:34:31;;;;;;;20.27;5.60;;;7.80;58.10;;;;;;5015241;28;20206;-77
2022/03/23 02:37:00;;;;;;;10.27;5.43;;;7.80;58.10;;;;;;5015323;28;20215;-77
2022/03/23 02:39:30;;;;;;;10.93;4.70;;;7.70;58.10;;;;;;5015468;28;20196;-77
2022/03/23 02:41:58;;;;;;;10.90;5.03;;;7.70;58.10;;;;;;5013599;28;20208;-77
2022/03/23 02:44:29;;;;;;;13.77;5.43;;;7.70;58.10;;;;;;5013770;28;20213;-77
2022/03/23 02:46:58;;;;;;;12.17;5.27;;;7.70;58.20;;;;;;5014576;28;20237;-77
2022/03/23 02:49:26;;;;;;;11.33;5.57;;;7.70;58.10;;;;;;5013962;28;20207;-77
2022/03/23 02:51:55;;;;;;;13.43;5.73;;;7.70;58.40;;;;;;5015009;28;20805;-77
2022/03/23 03:03:08;;;;;;;11.33;5.10;;;7.60;58.70;;;;;;5009204;28;20253;-77
2022/03/23 03:05:36;;;;;;;11.73;4.53;;;7.50;58.60;;;;;;5012126;28;20203;-77
2022/03/23 03:10:52;;;;;;;10.63;5.37;;;7.50;58.70;;;;;;5012517;28;20227;-77
2022/03/23 03:13:21;;;;;;;11.33;5.10;;;7.50;58.70;;;;;;5010399;28;20222;-76
2022/03/23 03:15:50;;;;;;;12.30;5.07;;;7.50;58.70;;;;;;5014874;28;20198;-77
2022/03/23 03:18:19;;;;;;;16.27;5.77;;;7.50;58.80;;;;;;5013057;28;20199;-77
2022/03/23 03:20:47;;;;;;;13.20;5.57;;;7.40;58.80;;;;;;5012613;28;20276;-77
2022/03/23 03:23:18;;;;;;;14.20;5.20;;;7.40;58.90;;;;;;5012944;28;20202;-77
2022/03/23 03:25:47;;;;;;;13.43;5.70;;;7.40;59.10;;;;;;5015664;28;20206;-77
2022/03/23 03:28:17;;;;;;;11.50;5.07;;;7.40;59.10;;;;;;5011007;28;20233;-77
2022/03/23 03:30:47;;;;;;;9.97;4.67;;;7.40;59.10;;;;;;5013940;28;20798;-77
2022/03/23 03:33:16;;;;;;;13.10;5.20;;;7.30;59.10;;;;;;5013683;28;20844;-77
2022/03/23 03:35:44;;;;;;;11.80;5.40;;;7.30;59.20;;;;;;5013201;28;20207;-76
2022/03/23 03:38:13;;;;;;;13.27;5.00;;;7.30;59.20;;;;;;5014756;28;20240;-77
2022/03/23 03:40:42;;;;;;;11.13;5.37;;;7.30;59.20;;;;;;5014137;28;20257;-77
2022/03/23 03:43:10;;;;;;;11.63;4.80;;;7.30;59.20;;;;;;5014367;28;20206;-77
2022/03/23 03:45:40;;;;;;;11.60;5.13;;;7.30;59.30;;;;;;5010743;28;20229;-77
2022/03/23 03:48:10;;;;;;;15.50;5.13;;;7.30;59.20;;;;;;5014983;28;20219;-78
2022/03/23 03:50:39;;;;;;;10.73;4.90;;;7.20;59.20;;;;;;5013919;28;20234;-76
2022/03/23 03:53:09;;;;;;;11.83;4.80;;;7.20;59.30;;;;;;5011935;28;20566;-77
2022/03/23 03:55:37;;;;;;;11.37;5.47;;;7.20;59.30;;;;;;5011513;28;20989;-77
2022/03/23 03:58:06;;;;;;;13.67;5.13;;;7.20;59.30;;;;;;5012732;28;20209;-77
2022/03/23 04:00:35;;;;;;;12.50;5.40;;;7.20;59.30;;;;;;5012038;28;20856;-77
2022/03/23 04:03:04;;;;;;;14.10;5.27;;;7.20;59.40;;;;;;5011535;28;20207;-77
2022/03/23 04:05:35;;;;;;;12.60;5.17;;;7.20;59.40;;;;;;5009829;28;20245;-77
2022/03/23 04:08:03;;;;;;;11.70;5.07;;;7.20;59.40;;;;;;5013919;28;20704;-77
2022/03/23 04:10:33;;;;;;;13.10;6.37;;;7.20;59.40;;;;;;5010252;28;20197;-76
2022/03/23 04:13:01;;;;;;;18.17;6.70;;;7.20;59.80;;;;;;5011838;28;20194;-77
2022/03/23 04:15:30;;;;;;;21.53;7.33;;;7.20;60.00;;;;;;5011687;28;20202;-77
2022/03/23 04:17:58;;;;;;;20.13;7.63;;;7.20;60.20;;;;;;5013903;28;20190;-77
2022/03/23 04:20:28;;;;;;;17.53;6.63;;;7.10;60.10;;;;;;5012494;28;20895;-77
2022/03/23 04:22:58;;;;;;;19.07;6.93;;;7.10;59.90;;;;;;5014316;28;20213;-77
2022/03/23 04:25:26;;;;;;;16.90;7.27;;;7.10;60.00;;;;;;5014025;28;20222;-77
2022/03/23 04:27:56;;;;;;;15.77;7.27;;;7.00;60.00;;;;;;5011781;28;20240;-78
2022/03/23 04:30:30;;;;;;;17.57;6.63;;;7.00;59.90;;;;;;5010393;28;20207;-77
2022/03/23 04:32:59;;;;;;;17.20;6.90;;;7.00;60.80;;;;;;5014544;28;20275;-77
2022/03/23 04:35:28;;;;;;;15.93;7.80;;;7.00;60.10;;;;;;5013565;28;20208;-77
2022/03/23 04:37:58;;;;;;;17.07;6.93;;;7.00;60.00;;;;;;5011370;28;20692;-77
2022/03/23 04:40:27;;;;;;;21.50;7.93;;;6.90;59.90;;;;;;5013060;28;21654;-77
2022/03/23 04:42:56;;;;;;;22.83;7.73;;;6.90;60.00;;;;;;5014678;28;20205;-77
2022/03/23 04:45:24;;;;;;;22.60;7.77;;;6.90;60.10;;;;;;5013146;28;20212;-77
2022/03/23 04:47:53;;;;;;;14.03;7.10;;;6.90;60.00;;;;;;5009151;28;20198;-77
2022/03/23 04:50:21;;;;;;;22.70;8.38;;;6.90;60.10;;;;;;5014882;28;20419;-77
2022/03/23 04:52:52;;;;;;;25.43;8.70;;;6.90;60.20;;;;;;5014988;28;20201;-78
2022/03/23 04:55:21;;;;;;;28.43;9.00;;;6.90;60.30;;;;;;5015668;28;20941;-77
2022/03/23 04:57:50;;;;;;;21.50;8.10;;;7.00;60.40;;;;;;5015238;28;20563;-77
2022/03/23 05:00:20;;;;;;;24.03;7.43;;;6.90;60.40;;;;;;5018342;28;20201;-78
2022/03/23 05:02:50;;;;;;;20.90;8.33;;;7.00;60.70;;;;;;5016979;28;20200;-77
2022/03/23 05:05:18;;;;;;;18.30;6.97;;;7.00;60.50;;;;;;5015700;28;20197;-77
2022/03/23 05:07:47;;;;;;;18.37;8.03;;;7.00;60.50;;;;;;5016080;28;20202;-77
2022/03/23 05:10:15;;;;;;;23.97;8.83;;;7.00;60.50;;;;;;5017245;28;20653;-77
2022/03/23 05:12:46;;;;;;;21.27;8.07;;;7.10;60.70;;;;;;5015282;28;20743;-77
2022/03/23 05:15:16;;;;;;;22.83;7.50;;;7.10;60.60;;;;;;5018030;28;20195;-77
2022/03/23 05:17:45;;;;;;;20.87;8.60;;;7.10;60.60;;;;;;5018403;28;20205;-77
2022/03/23 05:20:17;;;;;;;22.43;8.70;;;7.20;60.70;;;;;;5013600;28;20232;-78
2022/03/23 05:22:46;;;;;;;22.20;8.83;;;7.20;60.70;;;;;;5013507;28;20199;-77
2022/03/23 05:25:15;;;;;;;22.37;10.20;;;7.20;60.80;;;;;;5017894;28;20202;-78
2022/03/23 05:27:45;;;;;;;26.73;9.43;;;7.30;60.90;;;;;;5014745;28;20206;-77
2022/03/23 05:30:13;;;;;;;31.57;9.30;;;7.30;61.50;;;;;;5016041;28;20237;-77
2022/03/23 05:32:42;;;;;;;24.07;9.20;;;7.30;61.40;;;;;;5015055;28;20208;-77
2022/03/23 05:35:13;;;;;;;22.33;8.33;;;7.40;62.30;;;;;;5013890;28;20199;-76
2022/03/23 05:37:42;;;;;;;18.43;8.37;;;7.40;61.70;;;;;;5015296;28;20238;-77
2022/03/23 05:40:11;;;;;;;24.70;9.20;;;7.40;61.50;;;;;;5014457;28;20713;-77
2022/03/23 05:42:40;;;;;;;26.17;9.20;;;7.50;61.70;;;;;;5015176;28;20202;-76
2022/03/23 05:45:11;;;;;;;20.23;7.93;;;7.50;61.90;;;;;;5015358;28;20226;-78
2022/03/23 05:47:40;;;;;;;17.93;8.40;;;7.60;61.90;;;;;;5018155;28;22551;-77
2022/03/23 05:50:10;;;;;;;19.57;7.23;;;7.60;61.80;;;;;;5013832;28;20275;-77
2022/03/23 05:52:40;;;;;;;15.77;7.40;;;7.70;62.40;;;;;;5016236;28;20203;-77
2022/03/23 05:55:10;;;;;;;14.73;7.00;;;7.70;62.30;;;;;;5015858;28;20208;-77
2022/03/23 05:57:39;;;;;;;25.37;7.37;;;7.80;62.40;;;;;;5014796;28;20696;-78
2022/03/23 06:00:10;;;;;;;18.97;7.20;;;7.80;62.10;;;;;;5012582;28;20223;-78
2022/03/23 06:02:40;;;;;;;20.23;7.90;;;7.90;62.50;;;;;;5015765;28;20199;-78
2022/03/23 06:05:10;;;;;;;18.37;8.80;;;7.90;62.50;;;;;;5016814;28;20273;-77
2022/03/23 06:07:39;;;;;;;21.03;8.60;;;8.00;62.30;;;;;;5014414;28;20204;-77
2022/03/23 06:10:08;;;;;;;17.80;7.33;;;8.10;62.10;;;;;;5014965;28;20330;-77
2022/03/23 06:12:37;;;;;;;19.43;7.93;;;8.20;62.00;;;;;;5016187;28;20829;-77
2022/03/23 06:15:08;;;;;;;25.07;8.13;;;8.30;62.10;;;;;;5015621;28;20210;-77
2022/03/23 06:17:39;;;;;;;26.42;9.38;;;8.30;62.10;;;;;;5015752;28;20435;-76
2022/03/23 06:20:08;;;;;;;21.37;9.70;;;8.40;62.50;;;;;;5016432;28;20235;-77
2022/03/23 06:22:37;;;;;;;25.20;9.10;;;8.50;62.40;;;;;;5014408;28;20189;-77
2022/03/23 06:25:07;;;;;;;14.73;7.37;;;8.50;62.00;;;;;;5018034;28;20761;-77
2022/03/23 06:27:35;;;;;;;18.17;6.60;;;8.70;61.90;;;;;;5016082;28;20198;-79
2022/03/23 06:30:05;;;;;;;16.43;6.83;;;8.70;61.80;;;;;;5015464;28;20726;-78
2022/03/23 06:32:38;;;;;;;15.03;5.90;;;8.80;61.60;;;;;;5014631;28;20193;-77
2022/03/23 06:35:08;;;;;;;15.93;5.77;;;9.00;61.50;;;;;;5017201;28;20208;-77
2022/03/23 06:37:36;;;;;;;18.27;5.87;;;9.20;61.30;;;;;;5015636;28;20280;-77
2022/03/23 06:40:07;;;;;;;17.43;6.60;;;9.40;60.90;;;;;;5015127;28;20331;-78
2022/03/23 06:42:35;;;;;;;14.13;5.67;;;9.50;60.30;;;;;;5015216;28;20218;-77
2022/03/23 06:45:04;;;;;;;13.70;5.00;;;9.70;59.90;;;;;;5014107;28;20210;-77
2022/03/23 06:47:33;;;;;;;13.20;5.50;;;9.80;59.60;;;;;;5012492;28;20971;-78
2022/03/23 06:50:04;;;;;;;16.47;4.70;;;10.00;59.30;;;;;;5013471;28;20321;-78
2022/03/23 06:52:32;;;;;;;13.87;4.87;;;10.10;58.80;;;;;;5016975;28;20203;-77
2022/03/23 06:55:01;;;;;;;16.13;5.37;;;10.30;58.10;;;;;;5013681;28;20735;-78
2022/03/23 06:57:30;;;;;;;12.30;4.30;;;10.40;58.00;;;;;;5016623;28;20213;-77
2022/03/23 06:59:58;;;;;;;13.57;4.90;;;10.60;57.90;;;;;;5013867;28;20187;-77
2022/03/23 07:02:26;;;;;;;11.97;4.93;;;10.70;57.80;;;;;;5016542;28;20205;-77
2022/03/23 07:04:55;;;;;;;11.03;4.87;;;10.90;57.30;;;;;;5014368;28;20270;-77
2022/03/23 07:07:25;;;;;;;11.77;4.00;;;11.00;57.10;;;;;;5013342;28;20207;-79
2022/03/23 07:09:52;;;;;;;8.97;4.10;;;11.10;56.70;;;;;;5013630;28;20247;-78
2022/03/23 07:12:21;;;;;;;11.17;4.77;;;11.20;55.80;;;;;;5013537;28;20199;-78
2022/03/23 07:14:50;;;;;;;12.47;4.20;;;11.30;55.80;;;;;;5013449;28;20675;-78
2022/03/23 07:17:18;;;;;;;11.53;3.93;;;11.40;55.90;;;;;;5012481;28;20198;-77
2022/03/23 07:19:47;;;;;;;5.80;2.90;;;11.50;55.70;;;;;;5014331;28;20231;-78
2022/03/23 07:22:16;;;;;;;6.20;2.37;;;11.60;55.50;;;;;;5015842;28;20278;-77
2022/03/23 07:24:46;;;;;;;7.37;2.70;;;11.70;54.90;;;;;;5013821;28;20199;-77
2022/03/23 07:27:15;;;;;;;8.70;2.87;;;11.80;54.40;;;;;;5016891;28;20207;-78
2022/03/23 07:29:50;;;;;;;8.37;2.80;;;11.90;53.60;;;;;;5013062;28;20680;-78
2022/03/23 07:32:19;;;;;;;5.17;2.37;;;12.00;54.00;;;;;;5014835;28;20658;-76
2022/03/23 07:34:47;;;;;;;10.20;3.47;;;12.10;53.90;;;;;;5013539;28;20204;-77
2022/03/23 07:37:16;;;;;;;7.30;2.27;;;12.20;53.50;;;;;;5010844;28;20210;-79
2022/03/23 07:39:47;;;;;;;6.67;2.27;;;12.40;53.50;;;;;;5013083;28;20282;-78
2022/03/23 07:42:15;;;;;;;10.17;2.93;;;12.40;52.50;;;;;;5014690;28;20204;-77
2022/03/23 07:44:43;;;;;;;6.03;2.70;;;12.50;52.10;;;;;;5013830;28;20535;-78
2022/03/23 07:47:13;;;;;;;13.17;2.80;;;12.70;51.90;;;;;;5013098;28;20246;-77
2022/03/23 07:49:43;;;;;;;10.57;2.83;;;12.80;51.60;;;;;;5013501;28;20383;-76
2022/03/23 07:52:12;;;;;;;7.97;3.30;;;12.80;51.40;;;;;;5013246;28;20200;-77
2022/03/23 07:54:40;;;;;;;8.17;2.60;;;12.90;51.50;;;;;;5013131;28;20275;-77
2022/03/23 07:57:11;;;;;;;7.93;2.30;;;13.00;51.60;;;;;;5014455;28;20206;-76
2022/03/23 07:59:40;;;;;;;8.20;2.80;;;13.10;51.40;;;;;;5011049;28;20848;-78
2022/03/23 08:02:09;;;;;;;8.03;3.30;;;13.10;50.90;;;;;;5013185;28;21567;-78
2022/03/23 08:04:39;;;;;;;8.87;2.60;;;13.20;50.40;;;;;;5011073;28;20529;-78
2022/03/23 08:07:08;;;;;;;8.47;2.50;;;13.30;49.50;;;;;;5013778;28;20203;-79
2022/03/23 08:09:37;;;;;;;6.73;2.50;;;13.40;49.60;;;;;;5013075;28;20234;-77
2022/03/23 08:12:07;;;;;;;6.83;2.50;;;13.40;49.70;;;;;;5011595;28;20292;-79
2022/03/23 08:14:37;;;;;;;6.73;2.50;;;13.60;49.50;;;;;;5010172;28;20195;-78
2022/03/23 08:17:06;;;;;;;3.70;2.00;;;13.70;49.50;;;;;;5013189;28;20222;-79
2022/03/23 08:19:37;;;;;;;6.20;2.03;;;13.80;49.20;;;;;;5010547;28;20226;-79
2022/03/23 08:22:06;;;;;;;4.83;2.17;;;13.90;48.70;;;;;;5013122;28;20199;-78
2022/03/23 08:24:34;;;;;;;4.90;2.43;;;14.00;47.60;;;;;;5013492;28;20211;-78
2022/03/23 08:27:03;;;;;;;7.60;2.43;;;14.10;47.30;;;;;;5013029;28;20199;-79
2022/03/23 08:29:34;;;;;;;5.47;2.27;;;14.20;47.20;;;;;;5013196;28;20195;-78
2022/03/23 08:32:05;;;;;;;6.60;2.50;;;14.30;46.20;;;;;;5016182;28;20834;-78
2022/03/23 08:34:34;;;;;;;4.93;2.47;;;14.40;46.30;;;;;;5016360;28;20190;-79
2022/03/23 08:37:02;;;;;;;5.70;2.00;;;14.40;45.80;;;;;;5018471;28;20230;-78
2022/03/23 08:39:31;;;;;;;6.97;2.23;;;14.50;45.40;;;;;;5015143;28;20817;-81
2022/03/23 08:41:59;;;;;;;7.97;2.40;;;14.60;45.50;;;;;;5014569;28;20203;-78
2022/03/23 08:44:27;;;;;;;10.57;3.27;;;14.60;45.00;;;;;;5014939;28;20199;-79
2022/03/23 08:46:56;;;;;;;6.00;2.30;;;14.70;45.50;;;;;;5015536;28;20231;-78
2022/03/23 08:49:26;;;;;;;4.30;2.10;;;14.80;45.50;;;;;;5018246;28;20201;-80
2022/03/23 08:51:54;;;;;;;4.77;2.37;;;14.80;45.70;;;;;;5017763;28;20216;-78
2022/03/23 08:54:24;;;;;;;7.63;2.60;;;15.00;45.50;;;;;;5015572;28;20215;-78
2022/03/23 08:56:52;;;;;;;12.20;3.40;;;15.00;45.00;;;;;;5015873;28;20211;-78
2022/03/23 08:59:21;;;;;;;8.20;2.47;;;15.00;44.60;;;;;;5012020;28;20204;-77
2022/03/23 09:01:50;;;;;;;6.93;2.40;;;15.10;44.80;;;;;;5016632;28;20198;-77
2022/03/23 09:04:19;;;;;;;5.03;2.33;;;15.20;44.00;;;;;;5016872;28;20203;-77
2022/03/23 09:06:48;;;;;;;8.50;2.50;;;15.20;43.80;;;;;;5014725;28;20200;-79
2022/03/23 09:09:17;;;;;;;6.50;2.40;;;15.30;43.60;;;;;;5016097;28;20574;-79
2022/03/23 09:11:46;;;;;;;8.17;2.60;;;15.40;43.90;;;;;;5014504;28;20719;-76
2022/03/23 09:14:15;;;;;;;6.90;2.67;;;15.40;44.20;;;;;;5013762;28;20226;-79
2022/03/23 09:16:44;;;;;;;6.33;2.50;;;15.50;43.80;;;;;;5016803;28;20199;-78
2022/03/23 09:19:14;;;;;;;11.70;3.47;;;15.60;43.90;;;;;;5015628;28;20322;-77
2022/03/23 09:21:43;;;;;;;5.50;2.83;;;15.60;43.90;;;;;;5014723;28;20195;-78
2022/03/23 09:24:13;;;;;;;8.63;2.70;;;15.70;43.80;;;;;;5015428;28;20199;-77
2022/03/23 09:26:41;;;;;;;6.07;2.40;;;15.80;43.80;;;;;;5014555;28;20238;-79
2022/03/23 09:29:09;;;;;;;8.13;3.00;;;15.90;42.90;;;;;;5014165;28;20242;-78
2022/03/23 09:31:38;;;;;;;6.93;3.20;;;15.90;43.20;;;;;;5014769;28;20212;-79
2022/03/23 09:34:07;;;;;;;9.13;2.60;;;16.00;42.50;;;;;;5017436;28;20291;-77
2022/03/23 09:39:40;;;;;;;5.77;2.40;;;16.00;41.10;;;;;;4986437;28;20764;-81
2022/03/23 09:42:08;;;;;;;7.57;2.23;;;16.10;42.00;;;;;;5018816;28;20196;-79
2022/03/23 09:44:37;;;;;;;9.43;2.80;;;16.10;41.50;;;;;;5022869;28;20306;-80
2022/03/23 09:47:07;;;;;;;5.13;2.13;;;16.10;40.90;;;;;;5024487;28;20578;-83
2022/03/23 09:49:35;;;;;;;5.60;2.40;;;16.20;41.50;;;;;;5023044;28;20340;-79
2022/03/23 09:52:05;;;;;;;6.57;2.23;;;16.30;41.40;;;;;;5019491;28;20222;-83
2022/03/23 09:54:34;;;;;;;5.73;2.23;;;16.30;40.90;;;;;;5024930;28;20218;-80
2022/03/23 09:57:06;;;;;;;9.60;2.97;;;16.40;41.30;;;;;;5023500;28;20193;-81
2022/03/23 09:59:36;;;;;;;5.37;2.40;;;16.40;41.20;;;;;;5020904;28;20201;-81
2022/03/23 10:02:43;;;;;;;8.13;2.20;;;16.50;40.80;;;;;;5022382;28;20215;-80
2022/03/23 10:05:43;;;;;;;6.93;2.30;;;16.50;40.10;;;;;;5025015;28;20263;-79
2022/03/23 10:09:03;;;;;;;7.63;2.13;;;16.60;39.90;;;;;;5025473;28;20274;-81
2022/03/23 10:12:07;;;;;;;8.80;2.17;;;16.60;40.10;;;;;;4982803;28;20223;-79
2022/03/23 10:15:33;;;;;;;6.63;2.53;;;16.70;39.80;;;;;;4980899;28;20201;-83
2022/03/23 10:18:44;;;;;;;5.00;2.43;;;16.80;39.50;;;;;;4938826;28;20768;-83
2022/03/23 10:21:12;;;;;;;6.50;2.00;;;16.80;38.60;;;;;;4989401;28;20289;-79
2022/03/23 10:23:52;;;;;;;6.27;1.90;;;16.90;39.20;;;;;;5021985;28;20909;-80
2022/03/23 10:26:20;;;;;;;5.70;1.87;;;17.00;38.50;;;;;;5021037;28;20196;-78
2022/03/23 10:28:49;;;;;;;6.90;1.80;;;17.00;38.90;;;;;;5022950;28;20226;-79
2022/03/23 10:31:21;;;;;;;7.83;2.30;;;17.10;37.80;;;;;;5021294;28;20249;-79
2022/03/23 10:33:59;;;;;;;6.90;2.17;;;17.10;36.40;;;;;;5019364;28;20703;-78
2022/03/23 10:36:28;;;;;;;4.63;2.13;;;17.10;36.20;;;;;;5017515;28;20198;-78
2022/03/23 10:39:01;;;;;;;4.87;1.97;;;17.10;36.30;;;;;;5014964;28;20204;-80
2022/03/23 10:41:30;;;;;;;6.10;2.23;;;17.20;37.30;;;;;;5018552;28;20188;-78
2022/03/23 10:43:59;;;;;;;4.33;1.67;;;17.30;36.70;;;;;;5015634;28;20203;-78
2022/03/23 10:46:27;;;;;;;6.37;1.97;;;17.30;36.20;;;;;;5017865;28;20208;-80
2022/03/23 10:49:02;;;;;;;5.13;1.83;;;17.30;36.30;;;;;;5022297;28;20271;-79
2022/03/23 10:51:32;;;;;;;5.73;2.50;;;17.40;36.90;;;;;;5020336;28;20250;-79
2022/03/23 10:54:14;;;;;;;5.87;2.23;;;17.50;36.40;;;;;;5025443;28;20195;-79
2022/03/23 10:56:43;;;;;;;7.70;1.97;;;17.60;36.70;;;;;;5022924;28;20188;-77
2022/03/23 10:59:22;;;;;;;7.23;1.70;;;17.70;36.30;;;;;;5016196;28;20665;-80
2022/03/23 11:02:01;;;;;;;7.27;2.10;;;17.80;36.10;;;;;;5016461;28;20199;-77
2022/03/23 11:04:45;;;;;;;4.10;1.87;;;17.80;34.70;;;;;;5017911;28;20245;-78
2022/03/23 11:07:25;;;;;;;4.47;1.90;;;17.80;34.80;;;;;;5019679;28;20238;-78
2022/03/23 11:18:13;;;;;;;5.13;1.80;;;18.10;34.20;;;;;;5014840;28;20211;-77
2022/03/23 11:20:46;;;;;;;8.87;2.57;;;18.10;34.40;;;;;;5014512;28;20222;-78
2022/03/23 11:23:20;;;;;;;8.30;1.67;;;18.20;34.20;;;;;;5015756;28;20192;-77
2022/03/23 11:25:49;;;;;;;5.87;1.70;;;18.30;33.40;;;;;;5011109;28;20207;-77
2022/03/23 11:28:18;;;;;;;10.57;2.60;;;18.40;34.10;;;;;;5012181;28;20965;-77
2022/03/23 11:30:48;;;;;;;7.37;2.03;;;18.40;32.70;;;;;;5014049;28;20286;-78
2022/03/23 11:33:17;;;;;;;8.17;2.20;;;18.40;33.60;;;;;;5012517;28;20227;-81
2022/03/23 11:35:48;;;;;;;7.10;2.37;;;18.50;33.90;;;;;;5013703;28;20203;-78
2022/03/23 11:38:19;;;;;;;6.57;1.93;;;18.60;33.50;;;;;;5015203;28;20195;-78
2022/03/23 11:40:48;;;;;;;6.30;2.20;;;18.70;34.00;;;;;;5012719;28;20191;-79
2022/03/23 11:43:19;;;;;;;5.20;1.90;;;18.70;32.60;;;;;;5012459;28;20193;-83
2022/03/23 11:46:08;;;;;;;5.97;2.87;;;18.70;32.00;;;;;;5013428;28;20219;-80
2022/03/23 11:49:10;;;;;;;7.37;2.07;;;18.70;31.70;;;;;;5011718;28;20202;-81
2022/03/23 11:52:13;;;;;;;6.77;2.83;;;18.80;32.00;;;;;;5014693;28;20207;-80
2022/03/23 11:58:05;;;;;;;6.03;2.27;;;18.90;32.00;;;;;;5009769;28;20654;-79
2022/03/23 12:00:42;;;;;;;7.50;2.73;;;19.00;33.00;;;;;;4977240;28;20274;-80
2022/03/23 12:03:10;;;;;;;6.10;2.73;;;19.10;32.40;;;;;;5014241;28;20197;-79
2022/03/23 12:05:52;;;;;;;7.07;2.60;;;19.10;32.10;;;;;;5011288;28;20191;-80
2022/03/23 12:08:51;;;;;;;5.53;1.83;;;19.30;32.70;;;;;;5012966;28;21597;-83
2022/03/23 12:11:39;;;;;;;5.13;2.53;;;19.40;33.10;;;;;;5011179;28;20706;-79
2022/03/23 12:14:18;;;;;;;6.20;2.27;;;19.50;33.40;;;;;;5013707;28;20206;-80
2022/03/23 12:17:02;;;;;;;6.10;2.47;;;19.60;33.40;;;;;;5013900;28;20291;-80
2022/03/23 12:20:12;;;;;;;8.67;2.47;;;19.70;31.60;;;;;;5017203;28;20297;-81
2022/03/23 12:23:11;;;;;;;5.30;2.30;;;19.70;31.40;;;;;;5019418;28;20202;-80
2022/03/23 12:25:53;;;;;;;8.90;2.83;;;19.90;32.00;;;;;;5033450;28;20550;-80
2022/03/23 12:28:33;;;;;;;6.13;2.80;;;20.00;31.70;;;;;;5035271;28;20232;-80
2022/03/23 12:31:08;;;;;;;6.80;2.20;;;20.20;31.50;;;;;;5035028;28;20221;-81
2022/03/23 12:34:11;;;;;;;8.47;3.73;;;20.30;31.50;;;;;;5032099;28;20221;-80
2022/03/23 12:36:59;;;;;;;5.73;2.60;;;20.40;32.10;;;;;;5034432;28;20206;-78
2022/03/23 12:39:36;;;;;;;16.43;5.97;;;20.50;31.40;;;;;;5034943;28;20546;-79
2022/03/23 12:42:19;;;;;;;9.47;3.30;;;20.60;31.20;;;;;;5034754;28;20199;-79
2022/03/23 12:44:50;;;;;;;6.00;3.33;;;20.70;30.80;;;;;;5034384;28;20285;-81
2022/03/23 12:47:29;;;;;;;7.53;2.87;;;20.70;30.40;;;;;;5034055;28;20290;-80
2022/03/23 12:58:33;;;;;;;7.88;3.20;;;21.20;29.90;;;;;;5033447;28;20198;-80
2022/03/23 13:01:12;;;;;;;7.05;2.72;;;21.40;30.40;;;;;;5032286;28;20207;-80
2022/03/23 13:03:57;;;;;;;12.85;3.53;;;21.60;30.50;;;;;;5031598;28;20230;-84
2022/03/23 13:06:37;;;;;;;6.60;3.20;;;21.70;30.40;;;;;;5033223;28;20217;-79
2022/03/23 13:09:12;;;;;;;7.95;3.25;;;21.70;29.10;;;;;;5031781;28;20309;-78
2022/03/23 13:11:42;;;;;;;9.63;3.22;;;21.80;29.70;;;;;;5033512;28;20345;-77
2022/03/23 13:14:13;;;;;;;7.53;3.45;;;21.90;29.50;;;;;;5034557;28;20251;-78
2022/03/23 13:16:41;;;;;;;6.63;2.72;;;22.10;29.20;;;;;;5034122;28;20194;-77
2022/03/23 13:19:11;;;;;;;8.15;3.13;;;22.40;29.60;;;;;;5035721;28;20209;-79
2022/03/23 13:21:40;;;;;;;9.32;3.17;;;22.60;28.90;;;;;;5038672;28;20194;-78
2022/03/23 13:24:09;;;;;;;6.38;3.42;;;22.90;29.30;;;;;;5035566;28;20202;-79
2022/03/23 13:26:41;;;;;;;6.50;3.15;;;23.10;29.10;;;;;;5035969;28;20196;-79
2022/03/23 13:29:12;;;;;;;5.68;3.10;;;23.40;28.90;;;;;;5038857;28;20201;-79
2022/03/23 13:31:42;;;;;;;8.65;3.95;;;23.80;28.70;;;;;;5038392;28;20206;-79
2022/03/23 13:34:13;;;;;;;8.60;3.45;;;24.00;28.20;;;;;;5035558;28;20199;-78
2022/03/23 13:36:44;;;;;;;5.28;2.97;;;24.30;28.20;;;;;;5038545;28;20232;-77
2022/03/23 13:39:13;;;;;;;6.60;3.10;;;24.90;28.40;;;;;;5035897;28;20199;-76
2022/03/23 13:47:31;;;;;;;6.40;3.42;;;26.10;25.70;;;;;;5036951;28;20210;-77